Time;durP1;ratioP1;P1;durP2;ratioP2;P2;SDS_P1;SDS_P2;PMS_P1;PMS_P2;Temp;Humidity;BMP_temperature;BMP_pressure;BME280_temperature;BME280_humidity;BME280_pressure;Samples;Min_cycle;Max_cycle;Signal;HPM_P1;HPM_P2
2021/01/28 00:00:51;;;;;;;17.60;15.80;;;;;;;;;;5133800;27;20099;-59
2021/01/28 00:03:16;;;;;;;17.63;15.80;;;;;;;;;;5134045;27;20053;-59
2021/01/28 00:05:43;;;;;;;18.17;16.27;;;;;;;;;;5132578;27;20031;-60
2021/01/28 00:08:09;;;;;;;17.73;15.85;;;;;;;;;;5132133;27;20047;-60
2021/01/28 00:10:35;;;;;;;16.70;14.85;;;;;;;;;;5133538;27;20039;-59
2021/01/28 00:13:02;;;;;;;17.33;14.35;;;;;;;;;;5132218;27;20371;-60
2021/01/28 00:15:30;;;;;;;16.17;14.57;;;;;;;;;;5133021;27;20364;-59
2021/01/28 00:17:56;;;;;;;21.42;16.27;;;;;;;;;;5133089;27;20046;-60
2021/01/28 00:20:28;;;;;;;18.23;16.33;;;;;;;;;;5133515;27;20031;-59
2021/01/28 00:22:54;;;;;;;18.85;16.67;;;;;;;;;;5133234;27;20067;-59
2021/01/28 00:25:20;;;;;;;19.42;17.30;;;;;;;;;;5132032;27;20052;-59
2021/01/28 00:27:47;;;;;;;19.27;17.08;;;;;;;;;;5131851;27;20043;-59
2021/01/28 00:30:18;;;;;;;17.75;15.85;;;;;;;;;;5131974;27;20031;-59
2021/01/28 00:32:43;;;;;;;22.30;17.60;;;;;;;;;;5133216;27;20019;-59
2021/01/28 00:35:11;;;;;;;19.55;17.45;;;;;;;;;;5132589;27;20472;-60
2021/01/28 00:37:36;;;;;;;19.50;17.35;;;;;;;;;;5132996;27;20035;-59
2021/01/28 00:40:04;;;;;;;19.77;17.67;;;;;;;;;;5132652;27;20114;-59
2021/01/28 00:42:29;;;;;;;22.02;17.70;;;;;;;;;;5131890;27;20042;-60
2021/01/28 00:44:57;;;;;;;21.75;17.17;;;;;;;;;;5132742;27;20035;-60
2021/01/28 00:47:22;;;;;;;21.55;17.15;;;;;;;;;;5132494;27;20122;-59
2021/01/28 00:49:47;;;;;;;19.88;16.92;;;;;;;;;;5132427;27;20114;-59
2021/01/28 00:52:13;;;;;;;20.85;16.17;;;;;;;;;;5131259;27;20041;-60
2021/01/28 00:54:38;;;;;;;20.85;16.48;;;;;;;;;;5132624;27;20054;-60
2021/01/28 00:57:04;;;;;;;19.70;16.63;;;;;;;;;;5132924;27;20118;-60
2021/01/28 00:59:29;;;;;;;16.38;14.65;;;;;;;;;;5133098;27;20037;-59
2021/01/28 01:01:54;;;;;;;17.05;14.32;;;;;;;;;;5131881;27;20042;-60
2021/01/28 01:04:19;;;;;;;18.98;15.40;;;;;;;;;;5132527;27;20035;-60
2021/01/28 01:06:45;;;;;;;17.77;15.00;;;;;;;;;;5132769;27;20023;-60
2021/01/28 01:09:10;;;;;;;17.52;14.93;;;;;;;;;;5131666;27;20035;-60
2021/01/28 01:11:35;;;;;;;17.83;15.88;;;;;;;;;;5132702;27;20035;-59
2021/01/28 01:14:01;;;;;;;18.42;14.95;;;;;;;;;;5132543;27;20031;-60
2021/01/28 01:16:26;;;;;;;17.08;15.27;;;;;;;;;;5131630;27;20054;-59
2021/01/28 01:18:51;;;;;;;18.23;16.33;;;;;;;;;;5131780;27;20035;-59
2021/01/28 01:21:17;;;;;;;18.17;15.50;;;;;;;;;;5132641;27;20054;-60
2021/01/28 01:23:42;;;;;;;16.52;14.73;;;;;;;;;;5131943;27;20031;-59
2021/01/28 01:26:08;;;;;;;20.00;17.23;;;;;;;;;;5132517;27;20035;-59
2021/01/28 01:28:33;;;;;;;20.17;16.33;;;;;;;;;;5128030;27;20095;-59
2021/01/28 01:30:59;;;;;;;19.92;16.48;;;;;;;;;;5132527;27;20449;-60
2021/01/28 01:33:25;;;;;;;19.48;15.32;;;;;;;;;;5132566;27;20110;-60
2021/01/28 01:35:50;;;;;;;23.80;15.73;;;;;;;;;;5130938;27;20426;-60
2021/01/28 01:38:16;;;;;;;19.27;15.93;;;;;;;;;;5132364;27;20027;-59
2021/01/28 01:40:45;;;;;;;17.65;15.25;;;;;;;;;;5131950;27;20031;-59
2021/01/28 01:43:13;;;;;;;19.40;16.75;;;;;;;;;;5132217;27;20038;-59
2021/01/28 01:45:41;;;;;;;18.33;16.05;;;;;;;;;;5129912;27;20031;-59
2021/01/28 01:48:06;;;;;;;17.60;15.73;;;;;;;;;;5132085;27;20027;-59
2021/01/28 01:50:32;;;;;;;18.23;16.08;;;;;;;;;;5131923;27;21000;-59
2021/01/28 01:52:58;;;;;;;18.92;15.38;;;;;;;;;;5131308;27;20039;-59
2021/01/28 01:55:25;;;;;;;17.90;15.95;;;;;;;;;;5127733;27;20046;-59
2021/01/28 01:57:50;;;;;;;21.25;16.10;;;;;;;;;;5130023;27;20043;-59
2021/01/28 02:00:18;;;;;;;18.88;16.77;;;;;;;;;;5129979;27;20085;-59
2021/01/28 02:02:53;;;;;;;18.83;15.70;;;;;;;;;;5128564;27;20054;-59
2021/01/28 02:05:26;;;;;;;17.77;15.50;;;;;;;;;;5130619;27;20495;-59
2021/01/28 02:07:51;;;;;;;19.17;15.98;;;;;;;;;;5131665;27;20084;-59
2021/01/28 02:10:19;;;;;;;19.60;16.08;;;;;;;;;;5131329;27;20031;-60
2021/01/28 02:12:45;;;;;;;17.27;14.57;;;;;;;;;;5129761;27;20031;-60
2021/01/28 02:15:11;;;;;;;25.88;16.58;;;;;;;;;;5130275;27;20104;-59
2021/01/28 02:17:38;;;;;;;18.33;15.98;;;;;;;;;;5128409;27;20034;-60
2021/01/28 02:20:34;;;;;;;18.77;15.95;;;;;;;;;;5128691;27;20059;-59
2021/01/28 02:23:12;;;;;;;21.48;16.50;;;;;;;;;;5131659;27;20089;-59
2021/01/28 02:25:38;;;;;;;18.13;16.23;;;;;;;;;;5131059;27;20068;-60
2021/01/28 02:28:07;;;;;;;20.67;16.65;;;;;;;;;;5128297;27;20082;-60
2021/01/28 02:30:34;;;;;;;20.00;16.35;;;;;;;;;;5129747;27;20104;-59
2021/01/28 02:32:59;;;;;;;18.55;16.73;;;;;;;;;;5131493;27;20035;-60
2021/01/28 02:35:28;;;;;;;20.92;17.50;;;;;;;;;;5130978;27;20043;-59
2021/01/28 02:37:55;;;;;;;21.10;17.80;;;;;;;;;;5130312;27;20114;-60
2021/01/28 02:40:24;;;;;;;21.40;16.92;;;;;;;;;;5128888;27;20084;-60
2021/01/28 02:42:49;;;;;;;21.70;17.48;;;;;;;;;;5130009;27;20027;-60
2021/01/28 02:45:22;;;;;;;19.80;17.52;;;;;;;;;;5130159;27;20019;-60
2021/01/28 02:47:53;;;;;;;18.50;15.98;;;;;;;;;;5130616;27;20500;-59
2021/01/28 02:50:18;;;;;;;16.98;14.40;;;;;;;;;;5130017;27;20042;-59
2021/01/28 02:52:43;;;;;;;19.58;17.40;;;;;;;;;;5131324;27;20115;-59
2021/01/28 02:55:09;;;;;;;21.45;17.33;;;;;;;;;;5130654;27;20035;-59
2021/01/28 02:57:34;;;;;;;21.67;17.58;;;;;;;;;;5130123;27;20039;-59
2021/01/28 03:00:00;;;;;;;20.58;18.58;;;;;;;;;;5130704;27;20034;-60
2021/01/28 03:02:25;;;;;;;20.27;17.65;;;;;;;;;;5130668;27;20027;-60
2021/01/28 03:04:51;;;;;;;21.80;18.15;;;;;;;;;;5129198;27;20122;-59
2021/01/28 03:07:16;;;;;;;21.73;18.02;;;;;;;;;;5130513;27;20545;-59
2021/01/28 03:09:42;;;;;;;24.58;19.23;;;;;;;;;;5130422;27;20030;-59
2021/01/28 03:12:09;;;;;;;24.42;19.25;;;;;;;;;;5130784;27;20030;-59
2021/01/28 03:14:34;;;;;;;21.50;18.77;;;;;;;;;;5127743;27;20055;-59
2021/01/28 03:17:00;;;;;;;23.70;19.58;;;;;;;;;;5128835;27;20023;-59
2021/01/28 03:19:26;;;;;;;20.90;18.67;;;;;;;;;;5129408;27;20504;-59
2021/01/28 03:21:51;;;;;;;22.67;20.17;;;;;;;;;;5129832;27;20038;-59
2021/01/28 03:24:17;;;;;;;19.65;17.58;;;;;;;;;;5127576;27;20046;-59
2021/01/28 03:26:43;;;;;;;24.10;20.30;;;;;;;;;;5128842;27;20452;-59
2021/01/28 03:29:12;;;;;;;22.15;19.65;;;;;;;;;;5130779;27;20476;-59
2021/01/28 03:31:38;;;;;;;22.17;19.83;;;;;;;;;;5121764;27;20035;-59
2021/01/28 03:34:05;;;;;;;21.40;18.85;;;;;;;;;;5111007;28;20132;-59
2021/01/28 03:36:30;;;;;;;22.98;20.17;;;;;;;;;;5130021;27;20606;-59
2021/01/28 03:38:56;;;;;;;22.27;19.90;;;;;;;;;;5127789;27;20050;-59
2021/01/28 03:41:21;;;;;;;23.92;19.13;;;;;;;;;;5130354;27;20099;-59
2021/01/28 03:43:46;;;;;;;22.60;20.15;;;;;;;;;;5130189;27;20046;-59
2021/01/28 03:46:12;;;;;;;25.63;21.40;;;;;;;;;;5129147;27;20028;-60
2021/01/28 03:48:38;;;;;;;28.10;21.17;;;;;;;;;;5108844;27;20142;-60
2021/01/28 03:51:04;;;;;;;28.08;21.70;;;;;;;;;;5125550;27;20063;-59
2021/01/28 03:53:30;;;;;;;25.05;20.80;;;;;;;;;;5111629;27;20027;-60
2021/01/28 03:55:55;;;;;;;22.65;20.23;;;;;;;;;;5129869;27;20456;-59
2021/01/28 03:58:20;;;;;;;26.92;21.95;;;;;;;;;;5129057;27;20039;-60
2021/01/28 04:00:46;;;;;;;25.52;21.85;;;;;;;;;;5130381;27;20421;-59
2021/01/28 04:03:11;;;;;;;28.23;22.00;;;;;;;;;;5130051;27;20444;-59
2021/01/28 04:05:36;;;;;;;28.88;22.35;;;;;;;;;;5129123;27;20033;-59
2021/01/28 04:08:03;;;;;;;29.15;23.38;;;;;;;;;;5130513;27;20029;-60
2021/01/28 04:10:34;;;;;;;27.05;22.73;;;;;;;;;;5130108;27;20063;-60
2021/01/28 04:13:00;;;;;;;31.38;23.92;;;;;;;;;;5129874;27;20130;-59
2021/01/28 04:15:25;;;;;;;33.33;24.13;;;;;;;;;;5130108;27;20128;-59
2021/01/28 04:17:51;;;;;;;29.35;24.33;;;;;;;;;;5131919;27;20053;-60
2021/01/28 04:20:20;;;;;;;27.77;23.17;;;;;;;;;;5133293;27;20601;-59
2021/01/28 04:22:46;;;;;;;30.70;23.88;;;;;;;;;;5133592;27;20066;-60
2021/01/28 04:25:16;;;;;;;29.50;23.33;;;;;;;;;;5130929;27;20425;-60
2021/01/28 04:27:42;;;;;;;29.38;23.30;;;;;;;;;;5133476;27;20015;-59
2021/01/28 04:30:10;;;;;;;28.85;22.38;;;;;;;;;;5133695;27;20059;-59
2021/01/28 04:32:35;;;;;;;34.83;24.05;;;;;;;;;;5132671;27;20472;-59
2021/01/28 04:35:00;;;;;;;30.25;22.17;;;;;;;;;;5132284;27;20078;-59
2021/01/28 04:37:26;;;;;;;28.25;22.73;;;;;;;;;;5133509;27;20038;-60
2021/01/28 04:39:52;;;;;;;29.77;23.40;;;;;;;;;;5133320;27;20031;-59
2021/01/28 04:42:22;;;;;;;30.00;23.70;;;;;;;;;;5131201;27;20042;-59
2021/01/28 04:44:49;;;;;;;26.13;22.47;;;;;;;;;;5133283;27;20567;-60
2021/01/28 04:47:18;;;;;;;27.98;22.23;;;;;;;;;;5133504;27;20107;-60
2021/01/28 04:49:56;;;;;;;29.77;22.45;;;;;;;;;;5132914;27;20031;-59
2021/01/28 04:52:24;;;;;;;29.02;22.35;;;;;;;;;;5132488;27;20119;-60
2021/01/28 04:54:53;;;;;;;27.90;23.55;;;;;;;;;;5132807;27;20069;-59
2021/01/28 04:57:18;;;;;;;29.00;22.95;;;;;;;;;;5132607;27;20043;-59
2021/01/28 04:59:48;;;;;;;28.65;23.08;;;;;;;;;;5132443;27;20380;-59
2021/01/28 05:02:21;;;;;;;27.77;22.27;;;;;;;;;;5131987;27;20067;-59
2021/01/28 05:04:52;;;;;;;28.73;22.85;;;;;;;;;;5132710;27;20059;-59
2021/01/28 05:07:30;;;;;;;30.25;22.13;;;;;;;;;;5133087;27;20038;-60
2021/01/28 05:10:06;;;;;;;26.23;22.27;;;;;;;;;;5129742;27;20042;-60
2021/01/28 05:12:32;;;;;;;28.73;22.67;;;;;;;;;;5129886;27;20104;-59
2021/01/28 05:15:30;;;;;;;27.83;21.98;;;;;;;;;;5131735;27;20035;-59
2021/01/28 05:18:00;;;;;;;28.40;21.92;;;;;;;;;;5113577;27;20047;-59
2021/01/28 05:20:27;;;;;;;25.25;21.00;;;;;;;;;;5132189;27;20390;-59
2021/01/28 05:23:21;;;;;;;27.83;22.15;;;;;;;;;;5132973;27;20070;-59
2021/01/28 05:25:47;;;;;;;28.63;21.63;;;;;;;;;;5130976;27;20030;-59
2021/01/28 05:28:38;;;;;;;27.10;21.23;;;;;;;;;;5130778;27;20042;-59
2021/01/28 05:31:04;;;;;;;;;;;;;;;;;;5128300;27;20031;-59
2021/01/28 05:33:37;;;;;;;23.90;19.70;;;;;;;;;;5131392;27;19911;-59
2021/01/28 05:36:11;;;;;;;25.05;20.08;;;;;;;;;;5132312;27;20073;-59
2021/01/28 05:38:39;;;;;;;23.08;18.40;;;;;;;;;;5131204;27;20476;-59
2021/01/28 05:41:09;;;;;;;23.83;19.20;;;;;;;;;;5129742;27;20039;-59
2021/01/28 05:43:40;;;;;;;26.42;20.85;;;;;;;;;;5129112;27;20031;-59
2021/01/28 05:46:13;;;;;;;23.05;19.63;;;;;;;;;;5130018;27;20106;-59
2021/01/28 05:48:38;;;;;;;23.30;19.55;;;;;;;;;;5131425;27;20967;-59
2021/01/28 05:51:20;;;;;;;24.83;20.13;;;;;;;;;;5130751;27;20104;-59
2021/01/28 05:54:22;;;;;;;24.33;20.73;;;;;;;;;;5128881;27;20137;-60
2021/01/28 05:57:02;;;;;;;21.88;18.50;;;;;;;;;;5130327;27;20031;-60
2021/01/28 05:59:53;;;;;;;22.23;17.98;;;;;;;;;;5130385;27;20041;-60
2021/01/28 06:02:28;;;;;;;;;;;;;;;;;;5119725;27;20054;-60
2021/01/28 06:05:11;;;;;;;20.63;17.50;;;;;;;;;;5132056;27;19914;-60
2021/01/28 06:08:00;;;;;;;21.45;17.08;;;;;;;;;;5128250;27;20126;-59
2021/01/28 06:10:49;;;;;;;20.00;17.80;;;;;;;;;;5129446;27;20031;-59
2021/01/28 06:13:23;;;;;;;19.98;16.45;;;;;;;;;;5128820;27;20083;-60
2021/01/28 06:16:10;;;;;;;21.13;18.13;;;;;;;;;;5112429;27;20054;-59
2021/01/28 06:19:04;;;;;;;20.10;17.38;;;;;;;;;;5131146;27;20030;-60
2021/01/28 06:22:05;;;;;;;22.30;17.42;;;;;;;;;;5105596;27;20476;-59
2021/01/28 06:24:48;;;;;;;18.92;16.90;;;;;;;;;;5083887;27;20039;-60
2021/01/28 06:27:23;;;;;;;18.85;16.80;;;;;;;;;;5128941;27;20070;-59
2021/01/28 06:30:06;;;;;;;20.50;18.30;;;;;;;;;;5127741;27;20067;-60
2021/01/28 06:33:06;;;;;;;20.10;17.58;;;;;;;;;;5130540;27;20039;-60
2021/01/28 06:35:43;;;;;;;20.77;17.55;;;;;;;;;;5131382;27;20030;-60
2021/01/28 06:38:49;;;;;;;19.65;16.95;;;;;;;;;;5127554;27;20035;-59
2021/01/28 06:41:19;;;;;;;18.33;16.27;;;;;;;;;;5129953;27;20035;-60
2021/01/28 06:44:17;;;;;;;18.90;15.93;;;;;;;;;;5130456;27;20035;-60
2021/01/28 06:47:08;;;;;;;23.75;17.23;;;;;;;;;;5129129;27;20750;-59
2021/01/28 06:49:55;;;;;;;18.58;15.98;;;;;;;;;;5130299;27;20840;-59
2021/01/28 06:52:29;;;;;;;19.38;15.75;;;;;;;;;;5130389;27;20110;-59
2021/01/28 06:55:02;;;;;;;19.10;15.70;;;;;;;;;;5130386;27;20122;-60
2021/01/28 06:57:52;;;;;;;17.88;15.52;;;;;;;;;;5129578;27;20050;-59
2021/01/28 07:00:39;;;;;;;17.23;15.43;;;;;;;;;;5129980;27;20114;-59
2021/01/28 07:03:42;;;;;;;17.65;15.75;;;;;;;;;;5109202;27;20499;-59
2021/01/28 07:06:19;;;;;;;16.10;14.40;;;;;;;;;;5127848;27;20031;-59
2021/01/28 07:09:19;;;;;;;15.73;14.02;;;;;;;;;;5130534;27;20026;-59
2021/01/28 07:11:45;;;;;;;17.15;15.40;;;;;;;;;;5130835;27;20069;-59
2021/01/28 07:14:17;;;;;;;16.95;14.55;;;;;;;;;;5129997;27;20058;-59
2021/01/28 07:17:02;;;;;;;16.85;15.02;;;;;;;;;;5130423;27;20023;-59
2021/01/28 07:19:35;;;;;;;17.77;14.80;;;;;;;;;;5130376;27;20031;-59
2021/01/28 07:22:27;;;;;;;19.77;15.93;;;;;;;;;;5128043;27;20096;-59
2021/01/28 07:24:53;;;;;;;16.58;14.07;;;;;;;;;;5130774;27;20083;-59
2021/01/28 07:27:21;;;;;;;17.50;14.98;;;;;;;;;;5130650;27;20038;-59
2021/01/28 07:29:46;;;;;;;16.17;14.57;;;;;;;;;;5129030;27;20045;-59
2021/01/28 07:32:23;;;;;;;16.05;14.30;;;;;;;;;;5131121;27;20039;-59
2021/01/28 07:35:25;;;;;;;17.23;14.32;;;;;;;;;;5129778;27;20043;-59
2021/01/28 07:37:55;;;;;;;17.15;14.60;;;;;;;;;;5111681;28;20337;-59
2021/01/28 07:40:58;;;;;;;15.68;14.07;;;;;;;;;;5125578;27;20545;-59
2021/01/28 07:43:29;;;;;;;18.02;14.38;;;;;;;;;;5122683;28;20034;-59
2021/01/28 07:46:16;;;;;;;16.15;14.40;;;;;;;;;;5129436;27;20039;-60
2021/01/28 07:48:42;;;;;;;15.98;14.02;;;;;;;;;;5108915;27;20027;-60
2021/01/28 07:51:29;;;;;;;15.77;13.45;;;;;;;;;;5131333;27;20448;-59
2021/01/28 07:53:55;;;;;;;15.18;12.10;;;;;;;;;;5133594;27;20031;-59
2021/01/28 07:56:35;;;;;;;18.40;12.93;;;;;;;;;;5134234;27;20402;-59
2021/01/28 07:59:09;;;;;;;14.70;12.90;;;;;;;;;;5132179;27;20071;-59
2021/01/28 08:01:36;;;;;;;13.15;11.80;;;;;;;;;;5129852;27;20031;-59
2021/01/28 08:04:04;;;;;;;14.40;11.98;;;;;;;;;;5131150;27;20039;-59
2021/01/28 08:06:33;;;;;;;12.48;11.27;;;;;;;;;;5130841;27;20417;-59
2021/01/28 08:09:07;;;;;;;11.65;10.45;;;;;;;;;;5133974;27;20027;-59
2021/01/28 08:11:33;;;;;;;13.20;11.05;;;;;;;;;;5134142;27;20530;-59
2021/01/28 08:13:59;;;;;;;14.05;10.88;;;;;;;;;;5132352;27;20455;-60
2021/01/28 08:16:25;;;;;;;14.48;11.45;;;;;;;;;;5134286;27;20031;-60
2021/01/28 08:19:09;;;;;;;11.75;10.45;;;;;;;;;;5133015;27;20344;-60
2021/01/28 08:21:34;;;;;;;11.95;10.30;;;;;;;;;;5129634;27;20047;-59
2021/01/28 08:24:35;;;;;;;11.93;9.77;;;;;;;;;;5126295;27;20119;-60
2021/01/28 08:27:19;;;;;;;11.25;10.10;;;;;;;;;;5114254;27;20054;-60
2021/01/28 08:29:45;;;;;;;11.18;9.48;;;;;;;;;;5127597;27;20130;-60
2021/01/28 08:32:27;;;;;;;11.05;9.85;;;;;;;;;;5126723;27;20795;-60
2021/01/28 08:35:15;;;;;;;11.35;9.63;;;;;;;;;;5131123;27;20139;-60
2021/01/28 08:37:41;;;;;;;10.13;9.02;;;;;;;;;;5126568;27;20093;-60
2021/01/28 08:40:14;;;;;;;11.07;8.98;;;;;;;;;;5132993;27;20023;-60
2021/01/28 08:42:39;;;;;;;10.02;8.70;;;;;;;;;;5130174;27;20061;-60
2021/01/28 08:45:17;;;;;;;10.45;8.30;;;;;;;;;;5129133;27;20030;-60
2021/01/28 08:48:03;;;;;;;9.55;8.55;;;;;;;;;;5131615;27;20027;-60
2021/01/28 08:50:30;;;;;;;9.63;8.13;;;;;;;;;;5130164;27;20421;-60
2021/01/28 08:53:02;;;;;;;8.73;7.75;;;;;;;;;;5132410;27;20031;-60
2021/01/28 08:55:32;;;;;;;9.55;8.30;;;;;;;;;;5130286;27;20035;-60
2021/01/28 08:58:23;;;;;;;9.32;8.00;;;;;;;;;;5132127;27;20045;-60
2021/01/28 09:00:55;;;;;;;9.52;7.18;;;;;;;;;;5131553;27;20043;-60
2021/01/28 09:03:25;;;;;;;9.43;7.55;;;;;;;;;;5128747;27;20523;-60
2021/01/28 09:05:52;;;;;;;10.90;6.70;;;;;;;;;;5130590;27;20106;-60
2021/01/28 09:08:32;;;;;;;8.48;7.60;;;;;;;;;;5132167;27;20027;-60
2021/01/28 09:11:29;;;;;;;8.13;6.35;;;;;;;;;;5131218;27;20035;-60
2021/01/28 09:14:18;;;;;;;8.82;5.80;;;;;;;;;;5118703;27;20092;-59
2021/01/28 09:16:54;;;;;;;7.35;5.88;;;;;;;;;;5130202;27;20038;-59
2021/01/28 09:19:21;;;;;;;7.75;5.93;;;;;;;;;;5129152;27;20034;-59
2021/01/28 09:21:52;;;;;;;7.47;5.80;;;;;;;;;;5110511;27;20050;-60
2021/01/28 09:24:29;;;;;;;7.13;5.45;;;;;;;;;;5130831;27;20027;-62
2021/01/28 09:27:37;;;;;;;6.07;5.32;;;;;;;;;;5127929;27;20042;-60
2021/01/28 09:30:21;;;;;;;7.25;5.47;;;;;;;;;;5088317;27;20043;-60
2021/01/28 09:32:46;;;;;;;7.35;5.32;;;;;;;;;;5130723;27;20050;-60
2021/01/28 09:35:23;;;;;;;7.60;5.85;;;;;;;;;;5130201;27;20341;-60
2021/01/28 09:38:02;;;;;;;8.20;6.20;;;;;;;;;;5132520;27;20043;-60
2021/01/28 09:40:37;;;;;;;7.03;5.68;;;;;;;;;;5130042;27;20022;-60
2021/01/28 09:43:24;;;;;;;7.15;5.68;;;;;;;;;;5131560;27;20042;-60
2021/01/28 09:46:18;;;;;;;6.95;5.70;;;;;;;;;;5112053;27;20046;-60
2021/01/28 09:48:45;;;;;;;8.02;5.47;;;;;;;;;;5132163;27;20023;-60
2021/01/28 09:51:13;;;;;;;6.43;5.47;;;;;;;;;;5131806;27;20046;-60
2021/01/28 09:53:38;;;;;;;8.38;5.70;;;;;;;;;;5132174;27;20043;-60
2021/01/28 09:56:04;;;;;;;6.40;5.47;;;;;;;;;;5131675;27;20517;-60
2021/01/28 09:58:29;;;;;;;7.45;5.30;;;;;;;;;;5128765;27;20516;-60
2021/01/28 10:00:55;;;;;;;5.70;4.72;;;;;;;;;;5129496;27;20038;-60
2021/01/28 10:03:21;;;;;;;6.60;5.22;;;;;;;;;;5129767;27;20035;-60
2021/01/28 10:05:46;;;;;;;6.72;5.20;;;;;;;;;;5129608;27;20023;-60
2021/01/28 10:08:15;;;;;;;6.95;5.70;;;;;;;;;;5129117;27;20337;-60
2021/01/28 10:10:41;;;;;;;5.80;4.93;;;;;;;;;;5127623;27;20038;-60
2021/01/28 10:13:13;;;;;;;6.07;4.90;;;;;;;;;;5129869;27;20039;-60
2021/01/28 10:15:38;;;;;;;5.68;4.57;;;;;;;;;;5128265;27;20118;-60
2021/01/28 10:18:04;;;;;;;7.40;5.40;;;;;;;;;;5129719;27;20160;-60
2021/01/28 10:20:29;;;;;;;7.20;5.28;;;;;;;;;;5128551;27;20501;-60
2021/01/28 10:22:59;;;;;;;8.95;5.68;;;;;;;;;;5129753;27;20046;-60
2021/01/28 10:25:25;;;;;;;7.25;5.45;;;;;;;;;;5128266;27;20097;-60
2021/01/28 10:27:50;;;;;;;7.70;6.30;;;;;;;;;;5128587;27;20468;-61
2021/01/28 10:30:17;;;;;;;7.25;5.95;;;;;;;;;;5127881;27;20054;-61
2021/01/28 10:32:47;;;;;;;6.47;5.65;;;;;;;;;;5128115;27;20027;-61
2021/01/28 10:35:16;;;;;;;6.30;5.28;;;;;;;;;;5130002;27;20405;-60
2021/01/28 10:37:41;;;;;;;9.70;6.85;;;;;;;;;;5109953;27;20030;-60
2021/01/28 10:40:08;;;;;;;8.32;6.70;;;;;;;;;;5129409;27;20027;-60
2021/01/28 10:42:40;;;;;;;7.22;6.38;;;;;;;;;;5127405;27;20038;-60
2021/01/28 10:45:34;;;;;;;7.30;6.28;;;;;;;;;;5126122;27;20037;-60
2021/01/28 10:48:00;;;;;;;8.73;6.45;;;;;;;;;;5107807;27;20570;-60
2021/01/28 10:50:26;;;;;;;8.35;7.28;;;;;;;;;;5129885;27;20031;-60
2021/01/28 10:52:52;;;;;;;7.43;6.70;;;;;;;;;;5127433;27;20023;-60
2021/01/28 10:55:19;;;;;;;6.90;6.20;;;;;;;;;;5128467;27;20460;-60
2021/01/28 10:57:44;;;;;;;7.68;6.80;;;;;;;;;;5128598;27;20036;-60
2021/01/28 11:00:11;;;;;;;9.23;7.43;;;;;;;;;;5128794;27;20034;-59
2021/01/28 11:02:37;;;;;;;8.20;6.28;;;;;;;;;;5129567;27;20124;-60
2021/01/28 11:05:05;;;;;;;7.55;6.60;;;;;;;;;;5130273;27;20107;-60
2021/01/28 11:07:30;;;;;;;7.55;6.72;;;;;;;;;;5128229;27;20035;-60
2021/01/28 11:09:57;;;;;;;8.23;6.13;;;;;;;;;;5128169;27;20037;-60
2021/01/28 11:12:22;;;;;;;9.15;6.45;;;;;;;;;;5128420;27;20035;-60
2021/01/28 11:14:48;;;;;;;8.13;6.45;;;;;;;;;;5128311;27;20484;-60
2021/01/28 11:17:13;;;;;;;7.68;6.88;;;;;;;;;;5129020;27;20104;-60
2021/01/28 11:19:38;;;;;;;8.57;6.85;;;;;;;;;;5129213;27;20087;-60
2021/01/28 11:22:04;;;;;;;7.57;6.70;;;;;;;;;;5128704;27;20046;-60
2021/01/28 11:24:29;;;;;;;7.85;6.03;;;;;;;;;;5125030;27;20060;-60
2021/01/28 11:26:55;;;;;;;7.13;6.15;;;;;;;;;;5128810;27;20046;-60
2021/01/28 11:29:24;;;;;;;7.22;6.53;;;;;;;;;;5128620;27;20049;-59
2021/01/28 11:31:49;;;;;;;8.98;7.30;;;;;;;;;;5129607;27;20046;-61
2021/01/28 11:34:15;;;;;;;8.07;6.20;;;;;;;;;;5123403;27;20117;-60
2021/01/28 11:36:40;;;;;;;7.90;6.45;;;;;;;;;;5126348;27;20175;-61
2021/01/28 11:39:05;;;;;;;6.75;6.05;;;;;;;;;;5126925;27;20378;-61
2021/01/28 11:41:31;;;;;;;7.45;6.32;;;;;;;;;;5127424;27;20066;-61
2021/01/28 11:43:56;;;;;;;7.65;6.25;;;;;;;;;;5123942;27;20089;-60
2021/01/28 11:46:21;;;;;;;8.48;6.28;;;;;;;;;;5126874;28;20039;-61
2021/01/28 11:48:47;;;;;;;7.57;5.90;;;;;;;;;;5120293;27;20045;-61
2021/01/28 11:51:12;;;;;;;6.95;6.25;;;;;;;;;;5117801;27;20035;-60
2021/01/28 11:53:37;;;;;;;7.88;6.60;;;;;;;;;;5122890;27;20068;-63
2021/01/28 11:56:03;;;;;;;7.38;6.65;;;;;;;;;;5123218;28;20043;-61
2021/01/28 11:58:28;;;;;;;7.68;6.65;;;;;;;;;;5124779;27;20055;-60
2021/01/28 12:00:54;;;;;;;7.72;6.28;;;;;;;;;;5126364;27;20039;-60
2021/01/28 12:03:19;;;;;;;8.95;6.68;;;;;;;;;;5123364;27;20054;-60
2021/01/28 12:05:45;;;;;;;8.07;6.55;;;;;;;;;;5125293;27;20027;-60
2021/01/28 12:08:11;;;;;;;9.15;7.28;;;;;;;;;;5124606;27;20035;-60
2021/01/28 12:10:36;;;;;;;8.80;6.65;;;;;;;;;;5126207;27;20046;-60
2021/01/28 12:13:02;;;;;;;7.63;6.82;;;;;;;;;;5127025;27;20074;-60
2021/01/28 12:15:27;;;;;;;8.73;6.82;;;;;;;;;;5123696;27;20115;-60
2021/01/28 12:17:53;;;;;;;8.60;7.10;;;;;;;;;;5119020;27;20345;-60
2021/01/28 12:20:23;;;;;;;11.48;6.85;;;;;;;;;;5127455;27;20035;-60
2021/01/28 12:22:48;;;;;;;8.05;6.60;;;;;;;;;;5127176;27;20520;-60
2021/01/28 12:25:14;;;;;;;7.43;6.47;;;;;;;;;;5125027;27;20027;-61
2021/01/28 12:27:39;;;;;;;8.13;5.82;;;;;;;;;;5126534;27;20071;-60
2021/01/28 12:30:07;;;;;;;9.60;6.15;;;;;;;;;;5127394;27;20046;-60
2021/01/28 12:32:32;;;;;;;9.20;6.57;;;;;;;;;;5119868;27;20550;-60
2021/01/28 12:34:57;;;;;;;9.23;6.30;;;;;;;;;;5124643;27;20035;-60
2021/01/28 12:37:23;;;;;;;7.68;6.40;;;;;;;;;;5120623;27;20032;-60
2021/01/28 12:39:49;;;;;;;8.25;6.35;;;;;;;;;;5099823;27;20045;-60
2021/01/28 12:42:14;;;;;;;9.40;7.03;;;;;;;;;;5126348;27;20081;-60
2021/01/28 12:44:39;;;;;;;6.97;5.78;;;;;;;;;;5106961;27;20334;-60
2021/01/28 12:47:05;;;;;;;7.13;6.35;;;;;;;;;;5127377;27;20033;-60
2021/01/28 12:49:31;;;;;;;8.65;6.30;;;;;;;;;;5123973;27;20463;-60
2021/01/28 12:51:57;;;;;;;8.43;6.15;;;;;;;;;;5121823;27;20046;-60
2021/01/28 12:54:23;;;;;;;6.15;5.30;;;;;;;;;;5130491;27;20027;-60
2021/01/28 12:56:49;;;;;;;7.07;5.90;;;;;;;;;;5131716;27;20113;-60
2021/01/28 12:59:14;;;;;;;7.75;5.68;;;;;;;;;;5129088;27;20039;-60
2021/01/28 13:01:39;;;;;;;7.60;5.05;;;;;;;;;;5128784;27;20083;-60
2021/01/28 13:04:05;;;;;;;8.20;5.90;;;;;;;;;;5126125;27;20031;-61
2021/01/28 13:06:30;;;;;;;7.15;5.57;;;;;;;;;;5128130;27;20102;-60
2021/01/28 13:08:56;;;;;;;7.13;5.20;;;;;;;;;;5124540;27;20035;-60
2021/01/28 13:11:21;;;;;;;8.95;5.38;;;;;;;;;;5102797;27;20039;-60
2021/01/28 13:13:47;;;;;;;7.43;5.88;;;;;;;;;;5127919;27;20055;-60
2021/01/28 13:16:12;;;;;;;7.47;5.85;;;;;;;;;;5127576;27;20105;-60
2021/01/28 13:18:38;;;;;;;7.00;5.43;;;;;;;;;;5125192;27;20107;-60
2021/01/28 13:21:03;;;;;;;6.95;5.88;;;;;;;;;;5123374;27;20115;-60
2021/01/28 13:23:29;;;;;;;7.15;5.85;;;;;;;;;;5121985;27;20126;-60
2021/01/28 13:25:54;;;;;;;6.03;4.80;;;;;;;;;;5126569;27;20050;-60
2021/01/28 13:28:20;;;;;;;9.70;5.57;;;;;;;;;;5124376;27;20027;-60
2021/01/28 13:30:45;;;;;;;6.78;5.22;;;;;;;;;;5121962;27;20122;-60
2021/01/28 13:33:11;;;;;;;6.35;5.03;;;;;;;;;;5120580;27;20627;-60
2021/01/28 13:35:36;;;;;;;7.53;5.03;;;;;;;;;;5122264;27;20039;-60
2021/01/28 13:38:03;;;;;;;8.23;5.40;;;;;;;;;;5122918;27;20087;-60
2021/01/28 13:40:30;;;;;;;12.68;5.70;;;;;;;;;;5125838;27;20038;-60
2021/01/28 13:42:55;;;;;;;6.65;5.28;;;;;;;;;;5123061;27;20039;-61
2021/01/28 13:45:23;;;;;;;7.43;4.95;;;;;;;;;;5127739;27;20046;-61
2021/01/28 13:47:48;;;;;;;7.80;5.35;;;;;;;;;;5124506;27;20074;-60
2021/01/28 13:50:18;;;;;;;8.85;5.18;;;;;;;;;;5128368;27;20320;-60
2021/01/28 13:52:43;;;;;;;7.10;4.65;;;;;;;;;;5126921;27;20027;-60
2021/01/28 13:55:10;;;;;;;7.20;4.65;;;;;;;;;;5129927;27;20062;-60
2021/01/28 13:57:36;;;;;;;5.07;4.25;;;;;;;;;;5128560;27;20375;-60
2021/01/28 14:00:01;;;;;;;9.82;4.13;;;;;;;;;;5129466;27;20035;-60
2021/01/28 14:02:26;;;;;;;10.60;4.75;;;;;;;;;;5127597;27;20082;-60
2021/01/28 14:04:52;;;;;;;7.88;4.80;;;;;;;;;;5127663;27;20034;-61
2021/01/28 14:07:17;;;;;;;6.72;4.18;;;;;;;;;;5128994;27;20377;-60
2021/01/28 14:09:42;;;;;;;6.70;4.63;;;;;;;;;;5129419;27;20530;-60
2021/01/28 14:12:08;;;;;;;5.72;4.32;;;;;;;;;;5128344;27;20474;-61
2021/01/28 14:14:35;;;;;;;8.38;3.90;;;;;;;;;;5127432;27;20034;-61
2021/01/28 14:17:01;;;;;;;7.63;4.05;;;;;;;;;;5128038;27;20092;-61
2021/01/28 14:19:26;;;;;;;5.72;4.05;;;;;;;;;;5126260;27;20035;-63
2021/01/28 14:21:51;;;;;;;8.20;4.10;;;;;;;;;;5127622;27;20089;-61
2021/01/28 14:24:17;;;;;;;7.07;4.10;;;;;;;;;;5129126;27;20054;-61
2021/01/28 14:26:43;;;;;;;5.57;4.57;;;;;;;;;;5129487;27;20517;-60
2021/01/28 14:29:09;;;;;;;5.55;4.07;;;;;;;;;;5128186;27;20197;-60
2021/01/28 14:31:34;;;;;;;6.28;3.97;;;;;;;;;;5129515;27;20038;-60
2021/01/28 14:34:00;;;;;;;7.85;4.20;;;;;;;;;;5128016;27;20641;-60
2021/01/28 14:36:25;;;;;;;5.80;3.70;;;;;;;;;;5128898;27;20072;-61
2021/01/28 14:38:50;;;;;;;5.30;3.85;;;;;;;;;;5128047;27;20039;-61
2021/01/28 14:41:16;;;;;;;5.63;4.07;;;;;;;;;;5129022;27;20380;-60
2021/01/28 14:43:41;;;;;;;8.05;4.07;;;;;;;;;;5129240;27;20475;-60
2021/01/28 14:46:07;;;;;;;5.38;3.47;;;;;;;;;;5128216;27;20039;-60